Time;durP1;ratioP1;P1;durP2;ratioP2;P2;SDS_P1;SDS_P2;PMS_P1;PMS_P2;Temp;Humidity;BMP_temperature;BMP_pressure;BME280_temperature;BME280_humidity;BME280_pressure;Samples;Min_cycle;Max_cycle;Signal;HPM_P1;HPM_P2
2023/09/19 00:01:44;;;;;;;17.80;4.43;;;15.50;76.50;;;;;;5042574;28;20181;-82
2023/09/19 00:04:09;;;;;;;13.48;4.18;;;15.50;76.30;;;;;;5042718;28;20451;-77
2023/09/19 00:06:39;;;;;;;17.63;4.00;;;15.50;76.60;;;;;;5046292;28;20025;-76
2023/09/19 00:09:05;;;;;;;13.38;4.00;;;15.50;76.40;;;;;;5043247;28;20029;-82
2023/09/19 00:11:31;;;;;;;10.88;3.28;;;15.40;76.10;;;;;;5043630;28;20071;-77
2023/09/19 00:13:59;;;;;;;14.45;3.75;;;15.50;76.10;;;;;;5043877;28;20888;-76
2023/09/19 00:16:25;;;;;;;15.52;4.10;;;15.40;76.10;;;;;;5044865;28;20678;-77
2023/09/19 00:18:52;;;;;;;11.02;3.40;;;15.40;76.30;;;;;;5040669;28;21461;-78
2023/09/19 00:21:19;;;;;;;12.27;3.28;;;15.40;76.20;;;;;;5043556;28;20385;-78
2023/09/19 00:23:44;;;;;;;13.32;3.75;;;15.40;76.50;;;;;;5042694;28;21793;-77
2023/09/19 00:26:10;;;;;;;12.68;4.13;;;15.40;76.80;;;;;;5041460;28;20354;-77
2023/09/19 00:28:36;;;;;;;11.32;3.22;;;15.30;77.30;;;;;;5040664;28;20021;-76
2023/09/19 00:31:02;;;;;;;12.93;4.00;;;15.30;77.60;;;;;;5040936;28;20136;-75
2023/09/19 00:33:30;;;;;;;12.85;3.85;;;15.30;78.00;;;;;;5040994;28;20061;-78
2023/09/19 00:35:57;;;;;;;12.90;3.35;;;15.30;78.40;;;;;;5041694;28;20076;-74
2023/09/19 00:38:26;;;;;;;13.45;3.70;;;15.30;78.60;;;;;;5040404;28;20043;-80
2023/09/19 00:40:53;;;;;;;11.65;3.58;;;15.30;79.00;;;;;;5039410;28;20418;-77
2023/09/19 00:43:24;;;;;;;12.75;3.28;;;15.30;79.30;;;;;;5042850;28;20087;-75
2023/09/19 00:45:52;;;;;;;13.27;3.90;;;15.30;79.20;;;;;;5041249;28;20490;-80
2023/09/19 00:48:20;;;;;;;14.88;3.70;;;15.30;79.30;;;;;;5042671;28;20060;-80
2023/09/19 00:50:47;;;;;;;14.00;3.55;;;15.40;79.70;;;;;;5038944;28;20599;-78
2023/09/19 00:53:18;;;;;;;12.00;3.65;;;15.50;79.60;;;;;;5039986;28;20041;-81
2023/09/19 00:55:45;;;;;;;11.68;3.50;;;15.50;79.50;;;;;;5041637;28;20393;-77
2023/09/19 00:58:11;;;;;;;11.77;3.00;;;15.40;79.70;;;;;;5031325;28;20137;-77
2023/09/19 01:00:38;;;;;;;17.10;3.42;;;15.40;79.80;;;;;;5023803;28;20503;-79
2023/09/19 01:03:06;;;;;;;13.68;4.03;;;15.50;79.90;;;;;;5021296;28;20124;-77
2023/09/19 01:05:33;;;;;;;13.80;3.30;;;15.40;80.00;;;;;;5021669;28;20703;-77
2023/09/19 01:07:58;;;;;;;11.07;3.50;;;15.40;79.90;;;;;;5021558;28;20458;-77
2023/09/19 01:10:25;;;;;;;13.05;3.70;;;15.50;79.70;;;;;;5026063;28;20033;-80
2023/09/19 01:13:17;;;;;;;13.60;3.75;;;15.50;79.50;;;;;;5023646;28;20418;-81
2023/09/19 01:15:46;;;;;;;13.05;3.35;;;15.60;79.20;;;;;;5034465;28;20817;-76
2023/09/19 01:18:51;;;;;;;13.63;4.13;;;15.60;79.10;;;;;;5022744;28;20049;-83
2023/09/19 01:21:45;;;;;;;13.93;3.67;;;15.60;79.00;;;;;;4983325;28;20080;-80
2023/09/19 01:24:53;;;;;;;14.77;3.40;;;15.70;78.60;;;;;;4983790;28;20049;-81
2023/09/19 01:27:51;;;;;;;14.15;3.63;;;15.70;78.50;;;;;;5018421;28;20068;-77
2023/09/19 01:30:31;;;;;;;13.80;3.58;;;15.70;78.70;;;;;;4986913;28;20044;-78
2023/09/19 01:32:59;;;;;;;14.45;3.80;;;15.60;78.60;;;;;;5021007;28;20041;-76
2023/09/19 01:35:25;;;;;;;19.52;4.72;;;15.70;78.50;;;;;;5024189;28;20087;-76
2023/09/19 01:37:53;;;;;;;12.68;3.53;;;15.70;78.30;;;;;;5020905;28;20141;-80
2023/09/19 01:40:21;;;;;;;14.00;3.30;;;15.80;78.00;;;;;;5021365;28;20045;-77
2023/09/19 01:43:00;;;;;;;15.90;3.80;;;15.80;78.00;;;;;;5022884;28;20046;-76
2023/09/19 01:45:42;;;;;;;13.32;3.70;;;15.80;77.60;;;;;;5031640;28;20064;-78
2023/09/19 01:48:35;;;;;;;15.13;3.90;;;15.80;77.60;;;;;;5022522;28;20043;-76
2023/09/19 01:51:06;;;;;;;13.30;3.90;;;15.80;77.70;;;;;;5020963;28;20052;-80
2023/09/19 01:54:02;;;;;;;19.48;3.67;;;15.80;77.50;;;;;;5020149;28;20044;-76
2023/09/19 01:56:38;;;;;;;15.07;3.97;;;15.80;77.60;;;;;;5020347;28;20041;-82
2023/09/19 01:59:17;;;;;;;17.55;3.92;;;15.80;77.70;;;;;;5019235;28;20049;-76
2023/09/19 02:01:46;;;;;;;16.55;4.28;;;15.70;78.20;;;;;;5022055;28;20478;-76
2023/09/19 02:04:12;;;;;;;16.20;3.55;;;15.60;78.30;;;;;;5023081;28;20026;-80
2023/09/19 02:06:41;;;;;;;17.70;4.35;;;15.70;78.40;;;;;;5019612;28;20659;-77
2023/09/19 02:09:06;;;;;;;15.95;3.40;;;15.60;78.90;;;;;;5019131;28;20029;-79
2023/09/19 02:11:32;;;;;;;12.18;3.80;;;15.70;78.80;;;;;;5020066;28;20043;-79
2023/09/19 02:13:59;;;;;;;15.70;3.65;;;15.70;79.00;;;;;;5021268;28;20175;-76
2023/09/19 02:16:25;;;;;;;13.50;3.55;;;15.70;79.20;;;;;;5019317;28;20060;-78
2023/09/19 02:18:51;;;;;;;15.45;3.33;;;15.80;79.30;;;;;;5021338;28;20038;-77
2023/09/19 02:21:17;;;;;;;15.10;4.03;;;15.80;79.40;;;;;;5017483;28;20048;-79
2023/09/19 02:23:44;;;;;;;14.23;4.13;;;15.80;79.70;;;;;;5017840;28;20099;-80
2023/09/19 02:26:11;;;;;;;14.23;3.33;;;15.70;79.90;;;;;;5018874;28;20186;-78
2023/09/19 02:28:37;;;;;;;12.68;3.25;;;15.80;80.10;;;;;;5018611;28;20128;-78
2023/09/19 02:31:05;;;;;;;15.63;3.97;;;15.80;80.40;;;;;;5016479;28;20057;-80
2023/09/19 02:33:32;;;;;;;12.70;3.05;;;15.80;80.60;;;;;;5018765;28;20069;-79
2023/09/19 02:35:59;;;;;;;14.48;3.50;;;15.80;80.90;;;;;;5019194;28;20029;-78
2023/09/19 02:38:28;;;;;;;11.63;3.30;;;15.80;81.20;;;;;;5018098;28;20033;-80
2023/09/19 02:40:55;;;;;;;15.07;3.60;;;15.80;81.40;;;;;;5018888;28;20128;-78
2023/09/19 02:43:21;;;;;;;13.60;3.78;;;15.80;82.60;;;;;;5020410;28;20037;-77
2023/09/19 02:45:49;;;;;;;10.65;3.38;;;15.80;83.20;;;;;;5019699;28;20042;-79
2023/09/19 02:48:18;;;;;;;14.98;3.33;;;15.80;83.70;;;;;;5019417;28;20049;-78
2023/09/19 02:50:44;;;;;;;12.88;3.00;;;15.70;84.20;;;;;;5023077;28;20687;-76
2023/09/19 02:53:12;;;;;;;13.45;3.40;;;15.70;84.50;;;;;;5016404;28;20123;-77
2023/09/19 02:55:40;;;;;;;15.05;3.88;;;15.70;85.30;;;;;;5022300;28;20030;-81
2023/09/19 02:58:07;;;;;;;13.27;3.05;;;15.60;86.10;;;;;;5019526;28;20037;-75
2023/09/19 03:00:36;;;;;;;15.25;3.22;;;15.40;86.50;;;;;;5020410;28;20056;-78
2023/09/19 03:03:02;;;;;;;13.73;3.70;;;15.40;87.10;;;;;;5019245;28;20808;-76
2023/09/19 03:05:30;;;;;;;15.45;3.75;;;15.30;87.00;;;;;;5014363;28;20041;-78
2023/09/19 03:07:57;;;;;;;16.80;3.58;;;15.30;87.20;;;;;;5019077;28;20037;-76
2023/09/19 03:10:24;;;;;;;14.07;4.13;;;15.20;87.30;;;;;;5017524;28;20402;-75
2023/09/19 03:12:50;;;;;;;12.07;3.38;;;15.10;87.80;;;;;;5021361;28;21111;-76
2023/09/19 03:15:18;;;;;;;12.57;4.05;;;15.10;88.10;;;;;;5018631;28;20044;-75
2023/09/19 03:17:47;;;;;;;15.93;4.05;;;15.00;87.80;;;;;;5018032;28;20057;-77
2023/09/19 03:20:14;;;;;;;14.45;4.22;;;15.00;87.50;;;;;;5016245;28;20060;-78
2023/09/19 03:22:40;;;;;;;12.55;3.83;;;15.00;87.70;;;;;;5017947;28;20933;-78
2023/09/19 03:25:07;;;;;;;11.90;3.33;;;15.00;87.70;;;;;;5015268;28;20034;-75
2023/09/19 03:27:37;;;;;;;13.05;3.45;;;14.90;87.30;;;;;;5016908;28;20033;-78
2023/09/19 03:30:08;;;;;;;12.93;3.65;;;14.90;87.30;;;;;;5021964;28;20033;-81
2023/09/19 03:32:36;;;;;;;17.15;4.05;;;14.90;86.90;;;;;;5026054;28;20048;-79
2023/09/19 03:35:06;;;;;;;14.35;3.67;;;14.90;86.90;;;;;;5027962;28;20144;-79
2023/09/19 03:37:33;;;;;;;14.55;3.67;;;14.90;86.80;;;;;;5031266;28;20038;-78
2023/09/19 03:39:59;;;;;;;18.33;3.65;;;14.90;87.00;;;;;;5030899;28;20107;-77
2023/09/19 03:42:26;;;;;;;16.17;3.70;;;14.80;86.90;;;;;;5032419;28;20272;-78
2023/09/19 03:44:52;;;;;;;15.98;4.25;;;14.80;86.90;;;;;;5032764;28;20032;-78
2023/09/19 03:47:21;;;;;;;19.13;4.20;;;14.80;87.10;;;;;;5030992;28;20025;-78
2023/09/19 03:49:46;;;;;;;17.42;4.13;;;14.80;87.20;;;;;;5037189;28;20094;-79
2023/09/19 03:52:12;;;;;;;15.63;3.45;;;14.80;87.20;;;;;;5032047;28;20466;-80
2023/09/19 03:54:39;;;;;;;16.80;3.67;;;14.70;87.40;;;;;;5032956;28;20044;-81
2023/09/19 03:57:05;;;;;;;13.57;3.85;;;14.70;87.40;;;;;;5032882;28;20029;-78
2023/09/19 03:59:31;;;;;;;18.73;4.45;;;14.60;87.50;;;;;;5035278;28;20121;-78
2023/09/19 04:01:58;;;;;;;16.23;4.70;;;14.70;87.60;;;;;;5037101;28;20111;-80
2023/09/19 04:04:25;;;;;;;13.63;3.72;;;14.60;87.70;;;;;;5033887;28;20267;-79
2023/09/19 04:06:51;;;;;;;13.82;3.72;;;14.60;87.80;;;;;;5036220;28;20032;-81
2023/09/19 04:09:16;;;;;;;13.32;3.70;;;14.70;87.90;;;;;;5034405;28;20033;-74
2023/09/19 04:11:42;;;;;;;15.02;3.80;;;14.60;87.80;;;;;;5032498;28;20487;-77
2023/09/19 04:14:08;;;;;;;15.57;4.00;;;14.60;88.00;;;;;;5033558;28;20017;-78
2023/09/19 04:16:33;;;;;;;16.02;4.30;;;14.60;88.10;;;;;;5032708;28;20235;-78
2023/09/19 04:18:59;;;;;;;14.07;4.43;;;14.60;88.20;;;;;;5036257;28;20059;-81
2023/09/19 04:21:26;;;;;;;18.23;4.07;;;14.60;88.30;;;;;;5034685;28;20041;-78
2023/09/19 04:23:52;;;;;;;17.45;4.18;;;14.60;88.40;;;;;;5036601;28;20037;-77
2023/09/19 04:26:17;;;;;;;16.02;4.47;;;14.60;88.50;;;;;;5030747;28;20135;-78
2023/09/19 04:28:43;;;;;;;15.85;3.33;;;14.60;88.50;;;;;;5031394;28;20037;-78
2023/09/19 04:31:11;;;;;;;17.17;4.00;;;14.60;88.60;;;;;;5026689;28;20052;-77
2023/09/19 04:33:37;;;;;;;15.23;3.55;;;14.60;88.70;;;;;;5034944;28;20037;-79
2023/09/19 04:36:05;;;;;;;16.73;4.20;;;14.50;88.80;;;;;;5030290;28;20723;-79
2023/09/19 04:38:31;;;;;;;18.77;4.05;;;14.60;89.10;;;;;;5032944;28;20044;-74
2023/09/19 04:40:59;;;;;;;15.02;3.67;;;14.60;89.00;;;;;;5029141;28;20037;-78
2023/09/19 04:43:26;;;;;;;13.18;3.67;;;14.60;89.00;;;;;;5030389;28;20341;-78
2023/09/19 04:45:55;;;;;;;16.48;4.40;;;14.60;89.10;;;;;;5025785;28;20044;-78
2023/09/19 04:48:23;;;;;;;17.10;4.55;;;14.60;89.00;;;;;;5028645;28;20044;-80
2023/09/19 04:50:49;;;;;;;15.85;4.18;;;14.60;89.10;;;;;;5027999;28;20041;-79
2023/09/19 04:53:15;;;;;;;19.75;4.75;;;14.60;89.00;;;;;;5044180;28;20080;-81
2023/09/19 04:55:40;;;;;;;18.05;4.38;;;14.70;89.10;;;;;;5034805;28;20059;-82
2023/09/19 04:58:06;;;;;;;18.17;4.10;;;14.70;89.10;;;;;;5039114;28;20044;-79
2023/09/19 05:00:34;;;;;;;15.75;4.10;;;14.70;88.90;;;;;;5038860;28;20040;-77
2023/09/19 05:03:00;;;;;;;15.75;4.13;;;14.70;89.00;;;;;;5028670;28;20108;-80
2023/09/19 05:05:26;;;;;;;15.38;3.72;;;14.70;89.10;;;;;;5028941;28;20457;-81
2023/09/19 05:07:54;;;;;;;18.80;4.68;;;14.70;89.10;;;;;;5035628;28;20025;-76
2023/09/19 05:10:20;;;;;;;20.15;4.05;;;14.60;89.10;;;;;;5022954;28;20556;-78
2023/09/19 05:12:48;;;;;;;17.73;4.35;;;14.60;89.40;;;;;;5036688;28;20041;-76
2023/09/19 05:15:19;;;;;;;17.80;3.65;;;14.60;89.50;;;;;;5029564;28;20462;-78
2023/09/19 05:17:54;;;;;;;15.18;3.78;;;14.60;89.50;;;;;;5029505;28;20776;-80
2023/09/19 05:20:30;;;;;;;18.38;3.85;;;14.60;89.40;;;;;;5034534;28;20050;-81
2023/09/19 05:23:07;;;;;;;17.05;3.33;;;14.60;89.20;;;;;;5035433;28;20219;-80
2023/09/19 05:25:37;;;;;;;16.40;4.63;;;14.60;89.20;;;;;;5032956;28;20046;-77
2023/09/19 05:28:03;;;;;;;16.67;3.58;;;14.60;89.20;;;;;;5034000;28;20025;-76
2023/09/19 05:30:29;;;;;;;17.60;3.88;;;14.60;89.10;;;;;;5030169;28;20052;-76
2023/09/19 05:32:56;;;;;;;19.13;4.00;;;14.60;89.20;;;;;;5032104;28;20090;-74
2023/09/19 05:35:22;;;;;;;18.27;4.05;;;14.60;89.10;;;;;;5035096;28;20037;-76
2023/09/19 05:37:51;;;;;;;18.40;3.58;;;14.60;89.20;;;;;;5033953;28;20083;-76
2023/09/19 05:40:20;;;;;;;20.65;4.00;;;14.60;89.30;;;;;;5035551;28;20037;-78
2023/09/19 05:42:46;;;;;;;16.02;3.92;;;14.60;89.30;;;;;;5033282;28;20059;-82
2023/09/19 05:45:13;;;;;;;13.48;3.83;;;14.60;89.30;;;;;;5040204;28;20041;-77
2023/09/19 05:47:43;;;;;;;15.55;4.18;;;14.70;89.40;;;;;;5050621;28;20040;-77
2023/09/19 05:50:09;;;;;;;14.63;3.63;;;14.70;89.20;;;;;;5057417;28;20094;-80
2023/09/19 05:52:38;;;;;;;15.15;4.22;;;14.80;89.10;;;;;;5060665;28;20609;-79
2023/09/19 05:55:08;;;;;;;21.17;5.07;;;14.80;89.20;;;;;;5059347;28;20044;-86
2023/09/19 05:57:34;;;;;;;21.52;4.43;;;14.90;89.00;;;;;;5059669;28;20037;-82
2023/09/19 06:00:00;;;;;;;18.02;4.43;;;14.80;89.00;;;;;;5054250;28;20025;-79
2023/09/19 06:02:29;;;;;;;14.85;3.88;;;14.90;89.00;;;;;;5050625;28;20044;-86
2023/09/19 06:04:56;;;;;;;15.00;4.10;;;15.00;89.00;;;;;;5054612;28;20033;-77
2023/09/19 06:07:25;;;;;;;13.85;3.92;;;15.00;89.00;;;;;;5057819;28;20529;-76
2023/09/19 06:09:52;;;;;;;15.93;4.22;;;15.00;88.90;;;;;;5056133;28;20433;-83
2023/09/19 06:12:17;;;;;;;14.65;3.70;;;15.10;88.80;;;;;;5051650;28;20041;-76
2023/09/19 06:14:44;;;;;;;16.48;3.55;;;15.10;88.80;;;;;;5053792;28;20446;-77
2023/09/19 06:17:10;;;;;;;19.20;4.55;;;15.10;88.50;;;;;;5050889;28;20036;-80
2023/09/19 06:19:36;;;;;;;17.50;4.10;;;15.10;88.60;;;;;;5057012;28;20507;-76
2023/09/19 06:22:01;;;;;;;14.98;3.80;;;15.10;88.50;;;;;;5055029;28;20033;-79
2023/09/19 06:24:28;;;;;;;18.27;4.05;;;15.20;88.50;;;;;;5053543;28;20108;-79
2023/09/19 06:26:54;;;;;;;13.82;3.90;;;15.30;88.50;;;;;;5055411;28;20044;-84
2023/09/19 06:29:22;;;;;;;13.52;3.95;;;15.30;88.20;;;;;;5050479;28;20052;-80
2023/09/19 06:31:48;;;;;;;13.52;3.40;;;15.30;88.10;;;;;;5050840;28;20041;-84
2023/09/19 06:34:18;;;;;;;15.63;3.67;;;15.40;87.80;;;;;;5050256;28;20051;-81
2023/09/19 06:36:44;;;;;;;20.48;4.20;;;15.40;87.80;;;;;;5052325;28;20556;-79
2023/09/19 06:39:10;;;;;;;15.77;3.67;;;15.50;87.70;;;;;;5054090;28;20016;-78
2023/09/19 06:41:39;;;;;;;13.38;3.92;;;15.60;87.30;;;;;;5053254;28;20036;-79
2023/09/19 06:44:05;;;;;;;17.65;4.45;;;15.60;87.10;;;;;;5052024;28;20028;-80
2023/09/19 06:46:34;;;;;;;16.77;4.32;;;15.60;87.10;;;;;;5033998;28;20045;-82
2023/09/19 06:49:06;;;;;;;15.52;4.68;;;15.70;86.90;;;;;;5037534;28;20102;-79
2023/09/19 06:51:34;;;;;;;12.57;3.42;;;15.70;86.60;;;;;;5047114;28;20604;-79
2023/09/19 06:54:01;;;;;;;15.35;3.42;;;15.80;86.60;;;;;;5059966;28;20044;-82
2023/09/19 06:56:27;;;;;;;13.07;3.60;;;15.90;86.20;;;;;;5048987;28;20021;-78
2023/09/19 06:58:53;;;;;;;14.23;3.40;;;16.00;86.30;;;;;;5052134;28;20032;-79
2023/09/19 07:01:18;;;;;;;18.15;4.18;;;16.00;85.70;;;;;;5046447;28;20026;-81
2023/09/19 07:03:45;;;;;;;13.13;3.50;;;16.10;85.70;;;;;;5055109;28;20033;-76
2023/09/19 07:06:11;;;;;;;16.77;3.95;;;16.10;85.50;;;;;;5053071;28;20029;-77
2023/09/19 07:08:38;;;;;;;15.68;4.00;;;16.30;85.40;;;;;;5055833;28;20037;-77
2023/09/19 07:11:05;;;;;;;15.30;3.92;;;16.40;84.60;;;;;;5055449;28;20041;-80
2023/09/19 07:13:32;;;;;;;12.07;3.60;;;16.40;84.60;;;;;;5057534;28;20123;-76
2023/09/19 07:15:59;;;;;;;15.90;4.10;;;16.60;84.50;;;;;;5057584;28;20158;-80
2023/09/19 07:18:25;;;;;;;14.73;4.05;;;16.60;83.90;;;;;;5057607;28;20484;-77
2023/09/19 07:20:51;;;;;;;17.27;4.03;;;16.60;83.70;;;;;;5057228;28;20028;-78
2023/09/19 07:23:22;;;;;;;15.68;4.13;;;16.70;83.80;;;;;;5062713;28;20106;-80
2023/09/19 07:25:48;;;;;;;13.35;3.47;;;16.80;83.60;;;;;;5060091;28;20032;-77
2023/09/19 07:28:15;;;;;;;12.80;3.88;;;16.80;83.20;;;;;;5055382;28;20040;-78
2023/09/19 07:30:41;;;;;;;12.38;3.22;;;16.90;82.80;;;;;;5059529;28;20095;-76
2023/09/19 07:33:07;;;;;;;9.98;3.28;;;16.90;82.80;;;;;;5055583;28;20032;-77
2023/09/19 07:35:33;;;;;;;13.95;3.67;;;17.00;82.80;;;;;;5052817;28;20107;-83
2023/09/19 07:38:01;;;;;;;13.00;3.20;;;17.10;82.50;;;;;;5060459;28;20036;-79
2023/09/19 07:40:28;;;;;;;13.02;3.50;;;17.10;81.80;;;;;;5060966;28;20033;-79
2023/09/19 07:42:55;;;;;;;14.93;4.28;;;17.10;82.50;;;;;;5055257;28;20149;-83
2023/09/19 07:45:21;;;;;;;14.43;3.70;;;17.30;81.70;;;;;;5059762;28;20476;-77
2023/09/19 07:47:51;;;;;;;15.50;3.33;;;17.40;81.70;;;;;;5047764;28;20028;-79
2023/09/19 07:50:21;;;;;;;15.93;3.70;;;17.60;81.10;;;;;;5056258;28;20028;-80
2023/09/19 07:52:47;;;;;;;12.60;2.80;;;17.70;80.60;;;;;;5053343;28;20033;-77
2023/09/19 07:55:16;;;;;;;14.07;3.35;;;17.90;80.30;;;;;;5049774;28;20936;-75
2023/09/19 07:57:46;;;;;;;17.25;3.63;;;18.00;79.70;;;;;;5053276;28;20375;-78
2023/09/19 08:00:12;;;;;;;14.35;3.17;;;18.10;79.40;;;;;;5052153;28;20021;-76
2023/09/19 08:02:39;;;;;;;13.65;3.25;;;18.20;79.00;;;;;;5050713;28;20375;-77
2023/09/19 08:05:12;;;;;;;12.57;3.50;;;18.20;78.20;;;;;;5052019;28;20040;-75
2023/09/19 08:07:39;;;;;;;15.52;3.30;;;18.30;77.90;;;;;;5056094;28;20044;-78
2023/09/19 08:10:12;;;;;;;14.70;3.55;;;18.40;78.20;;;;;;5055902;28;20070;-74
2023/09/19 08:12:48;;;;;;;17.50;3.70;;;18.20;78.10;;;;;;5047021;28;20072;-76
2023/09/19 08:15:20;;;;;;;11.93;3.20;;;18.40;78.00;;;;;;5052405;28;20033;-75
2023/09/19 08:17:46;;;;;;;12.85;3.15;;;18.50;77.70;;;;;;5055564;28;20029;-78
2023/09/19 08:20:17;;;;;;;9.60;2.70;;;18.60;77.80;;;;;;5055248;28;20465;-77
2023/09/19 08:22:52;;;;;;;13.43;3.72;;;18.60;76.70;;;;;;5050772;28;20745;-76
2023/09/19 08:25:18;;;;;;;17.02;3.85;;;18.60;76.60;;;;;;5051678;28;20052;-74
2023/09/19 08:27:48;;;;;;;17.08;3.45;;;18.70;76.40;;;;;;5052157;28;20115;-73
2023/09/19 08:30:23;;;;;;;11.98;3.47;;;18.80;76.60;;;;;;5053749;28;20028;-74
2023/09/19 08:33:03;;;;;;;13.50;3.75;;;19.00;76.30;;;;;;5055921;28;20086;-79
2023/09/19 08:35:28;;;;;;;14.18;3.10;;;18.90;75.90;;;;;;5055596;28;20025;-78
2023/09/19 08:37:55;;;;;;;14.85;3.33;;;19.10;76.00;;;;;;5057041;28;20358;-74
2023/09/19 08:40:21;;;;;;;12.93;2.90;;;19.00;75.50;;;;;;5056172;28;20039;-75
2023/09/19 08:42:54;;;;;;;10.93;3.03;;;19.00;74.60;;;;;;5050248;28;20029;-77
2023/09/19 08:45:27;;;;;;;10.80;3.20;;;19.10;75.00;;;;;;5052856;28;20037;-75
2023/09/19 08:48:13;;;;;;;18.50;3.13;;;19.10;74.80;;;;;;5059098;28;20322;-73
2023/09/19 08:50:51;;;;;;;9.45;2.90;;;19.10;74.90;;;;;;5052780;28;20124;-75
2023/09/19 08:53:46;;;;;;;15.02;3.55;;;19.20;74.00;;;;;;5056858;28;20032;-73
2023/09/19 08:56:13;;;;;;;10.85;2.60;;;19.20;73.60;;;;;;5020370;28;20033;-73
2023/09/19 08:58:51;;;;;;;11.40;2.53;;;19.40;74.50;;;;;;5056141;28;20411;-76
2023/09/19 09:01:24;;;;;;;13.02;3.22;;;19.60;73.30;;;;;;5054129;28;20033;-78
2023/09/19 09:03:52;;;;;;;11.00;2.40;;;19.60;72.50;;;;;;5056501;28;20120;-77
2023/09/19 09:06:20;;;;;;;10.45;2.88;;;19.50;72.90;;;;;;5052035;28;20037;-75
2023/09/19 09:08:47;;;;;;;10.45;2.63;;;19.50;72.60;;;;;;5055048;28;20123;-75
2023/09/19 09:11:14;;;;;;;14.30;2.80;;;19.50;73.20;;;;;;5052755;28;20090;-78
2023/09/19 09:13:41;;;;;;;12.15;3.05;;;19.50;73.20;;;;;;5051518;28;20355;-77
2023/09/19 09:16:07;;;;;;;11.75;2.97;;;19.60;73.50;;;;;;5053039;28;20090;-75
2023/09/19 09:18:33;;;;;;;8.57;2.28;;;19.60;73.30;;;;;;5050518;28;20054;-76
2023/09/19 09:20:59;;;;;;;12.80;2.58;;;19.60;73.20;;;;;;5053068;28;20294;-74
2023/09/19 09:23:29;;;;;;;9.48;2.65;;;19.60;73.40;;;;;;5051513;28;20067;-77
2023/09/19 09:26:13;;;;;;;12.73;2.63;;;19.60;73.90;;;;;;5053456;28;20489;-76
2023/09/19 09:28:47;;;;;;;12.07;2.47;;;19.50;73.10;;;;;;5050013;28;20041;-74
2023/09/19 09:31:24;;;;;;;7.10;2.38;;;19.50;73.00;;;;;;5054493;28;20084;-78
2023/09/19 09:33:57;;;;;;;12.00;2.50;;;19.60;73.30;;;;;;5051999;28;20031;-75
2023/09/19 09:36:37;;;;;;;10.30;2.97;;;19.70;72.90;;;;;;5053239;28;20056;-78
2023/09/19 09:39:15;;;;;;;9.65;2.65;;;20.00;73.30;;;;;;5032888;28;20037;-76
2023/09/19 09:41:43;;;;;;;11.85;2.83;;;20.30;72.40;;;;;;5036220;28;20072;-77
2023/09/19 09:44:19;;;;;;;11.10;2.30;;;20.40;71.20;;;;;;5030311;28;20017;-76
2023/09/19 09:46:58;;;;;;;8.98;2.47;;;20.40;70.40;;;;;;5029365;28;20501;-76
2023/09/19 09:49:33;;;;;;;8.07;2.20;;;20.60;70.10;;;;;;5037126;28;20021;-77
2023/09/19 09:52:23;;;;;;;10.02;2.85;;;20.70;70.60;;;;;;5029406;28;20047;-75
2023/09/19 09:55:07;;;;;;;10.98;2.45;;;20.90;69.50;;;;;;5029557;28;20041;-74
2023/09/19 09:57:34;;;;;;;8.90;2.20;;;20.90;68.40;;;;;;5040708;28;20036;-77
2023/09/19 10:02:40;;;;;;;10.38;2.53;;;20.90;68.40;;;;;;5028720;28;20041;-74
2023/09/19 10:07:51;;;;;;;8.57;2.28;;;21.00;68.60;;;;;;5061002;28;20056;-77
2023/09/19 10:13:07;;;;;;;7.88;2.30;;;21.20;69.20;;;;;;5049384;28;20044;-77
2023/09/19 10:15:33;;;;;;;9.05;2.17;;;21.50;68.60;;;;;;5043457;28;20048;-76
2023/09/19 10:18:06;;;;;;;4.68;1.50;;;21.60;67.60;;;;;;5040825;28;20555;-76
2023/09/19 10:20:35;;;;;;;7.18;1.80;;;21.60;67.30;;;;;;5032225;28;20037;-74
2023/09/19 10:23:09;;;;;;;8.15;2.58;;;21.60;66.60;;;;;;5028708;28;20033;-76
2023/09/19 10:25:37;;;;;;;9.88;2.10;;;21.70;66.60;;;;;;5029349;28;20040;-76
2023/09/19 10:28:06;;;;;;;6.43;1.73;;;21.70;66.70;;;;;;5029156;28;20120;-75
2023/09/19 10:30:36;;;;;;;9.85;1.88;;;21.60;66.40;;;;;;5030090;28;20048;-74
2023/09/19 10:33:05;;;;;;;5.57;1.58;;;21.40;66.90;;;;;;5032642;28;20402;-75
2023/09/19 10:35:32;;;;;;;8.50;2.13;;;21.50;66.30;;;;;;5029285;28;20540;-74
2023/09/19 10:38:01;;;;;;;6.85;1.80;;;21.70;66.60;;;;;;5031760;28;20508;-77
2023/09/19 10:40:33;;;;;;;6.97;1.80;;;21.50;66.00;;;;;;5029408;28;20424;-75
2023/09/19 10:43:05;;;;;;;8.30;1.83;;;21.60;66.90;;;;;;5032497;28;20216;-74
2023/09/19 10:45:31;;;;;;;7.28;1.88;;;21.70;65.50;;;;;;5027035;28;20041;-74
2023/09/19 10:47:58;;;;;;;8.18;1.77;;;21.70;65.40;;;;;;5029997;28;20037;-78
2023/09/19 10:50:25;;;;;;;5.43;1.88;;;21.60;65.40;;;;;;5033214;28;20061;-76
2023/09/19 10:53:00;;;;;;;6.40;1.48;;;21.50;66.20;;;;;;5032960;28;20438;-74
2023/09/19 10:55:28;;;;;;;6.43;1.70;;;21.60;66.10;;;;;;5035006;28;20029;-75
2023/09/19 10:58:13;;;;;;;11.85;2.28;;;21.60;65.40;;;;;;5033328;28;20429;-76
2023/09/19 11:00:53;;;;;;;4.65;1.42;;;21.30;66.10;;;;;;5031325;28;20109;-75
2023/09/19 11:03:23;;;;;;;7.50;2.00;;;21.30;66.60;;;;;;5037200;28;20329;-75
2023/09/19 11:06:15;;;;;;;5.60;1.90;;;21.40;66.60;;;;;;5032069;28;20131;-75
2023/09/19 11:08:56;;;;;;;7.95;1.73;;;21.30;66.70;;;;;;5035573;28;20147;-75
2023/09/19 11:11:41;;;;;;;8.93;1.77;;;21.30;67.10;;;;;;5030742;28;20045;-75
2023/09/19 11:14:25;;;;;;;6.13;1.92;;;21.10;66.60;;;;;;5057865;28;20037;-76
2023/09/19 11:17:17;;;;;;;8.32;1.95;;;21.10;67.30;;;;;;5054634;28;20361;-78
2023/09/19 11:25:41;;;;;;;6.70;2.00;;;21.50;66.80;;;;;;5056910;28;20536;-77
2023/09/19 11:28:08;;;;;;;7.13;1.98;;;21.60;66.90;;;;;;5057079;28;20396;-74
2023/09/19 11:30:36;;;;;;;7.05;1.90;;;21.90;67.20;;;;;;5052215;28;20065;-76
2023/09/19 11:33:23;;;;;;;7.85;2.33;;;22.10;66.60;;;;;;5054813;28;20021;-76
2023/09/19 11:36:09;;;;;;;6.20;1.73;;;22.10;65.60;;;;;;5057132;28;20119;-79
2023/09/19 11:38:44;;;;;;;5.38;1.70;;;22.00;66.10;;;;;;5047759;28;20048;-76
2023/09/19 11:41:29;;;;;;;6.18;1.50;;;21.80;65.20;;;;;;5061531;28;20400;-76
2023/09/19 11:44:03;;;;;;;6.05;1.63;;;21.60;66.50;;;;;;5067818;28;20093;-75
2023/09/19 11:46:33;;;;;;;6.13;2.13;;;21.40;67.80;;;;;;5062592;28;20045;-75
2023/09/19 11:49:10;;;;;;;7.68;1.80;;;21.30;67.20;;;;;;5061961;28;20051;-76
2023/09/19 11:51:44;;;;;;;7.45;1.80;;;21.40;67.60;;;;;;5036373;28;20468;-76
2023/09/19 11:54:17;;;;;;;7.43;2.17;;;21.40;67.50;;;;;;5026826;28;20030;-75
2023/09/19 11:56:50;;;;;;;6.80;2.40;;;21.60;67.50;;;;;;5036725;28;20053;-76
2023/09/19 11:59:29;;;;;;;8.30;2.40;;;21.70;67.00;;;;;;5031272;28;20426;-75
2023/09/19 12:02:02;;;;;;;9.18;2.25;;;21.60;66.70;;;;;;5032624;28;20343;-75
2023/09/19 12:04:43;;;;;;;6.93;2.03;;;21.50;67.20;;;;;;5034031;28;20028;-74
2023/09/19 12:07:16;;;;;;;11.52;2.30;;;21.50;67.70;;;;;;5032881;28;20033;-74
2023/09/19 12:09:44;;;;;;;7.43;2.33;;;21.50;66.90;;;;;;5035941;28;20115;-75
2023/09/19 12:12:12;;;;;;;8.90;2.13;;;21.50;67.30;;;;;;5031342;28;20402;-76
2023/09/19 12:14:41;;;;;;;7.55;2.40;;;21.50;67.40;;;;;;5030045;28;20076;-76
2023/09/19 12:17:06;;;;;;;11.32;2.33;;;21.50;67.30;;;;;;5030968;28;20087;-75
2023/09/19 12:19:32;;;;;;;7.15;2.28;;;21.60;67.80;;;;;;5032994;28;20065;-75
2023/09/19 12:22:06;;;;;;;8.00;2.00;;;21.60;68.10;;;;;;5032043;28;20138;-75
2023/09/19 12:24:32;;;;;;;7.03;2.00;;;21.50;68.10;;;;;;5032150;28;20116;-74
2023/09/19 12:27:06;;;;;;;7.10;2.10;;;21.60;67.40;;;;;;5030551;28;20045;-73
2023/09/19 12:29:43;;;;;;;6.47;2.10;;;21.50;67.50;;;;;;5028092;28;20044;-73
2023/09/19 12:32:08;;;;;;;6.55;2.30;;;21.50;67.40;;;;;;5027483;28;20421;-74
2023/09/19 12:34:35;;;;;;;6.97;2.40;;;21.60;67.60;;;;;;5027111;28;20608;-76
2023/09/19 12:37:29;;;;;;;11.02;2.60;;;21.50;66.70;;;;;;5032744;28;20441;-74
2023/09/19 12:40:14;;;;;;;8.55;2.38;;;21.60;66.80;;;;;;5027642;28;20090;-76
2023/09/19 12:42:41;;;;;;;10.30;2.40;;;21.40;67.10;;;;;;5033649;28;20351;-73
2023/09/19 12:45:09;;;;;;;6.82;2.17;;;21.50;66.90;;;;;;5033243;28;20033;-74
2023/09/19 12:47:35;;;;;;;7.50;2.30;;;21.60;66.10;;;;;;5024179;28;20055;-74
2023/09/19 12:50:25;;;;;;;8.70;2.08;;;21.50;67.00;;;;;;5030347;28;20477;-74
2023/09/19 12:52:52;;;;;;;8.35;2.20;;;21.60;66.90;;;;;;5028629;28;20045;-76
2023/09/19 12:55:33;;;;;;;8.77;2.20;;;21.50;66.60;;;;;;5025510;28;20021;-75
2023/09/19 12:58:19;;;;;;;7.82;2.53;;;21.30;67.20;;;;;;5029942;28;20045;-76
2023/09/19 13:00:46;;;;;;;6.28;2.08;;;21.30;67.30;;;;;;5029514;28;20017;-75
2023/09/19 13:03:15;;;;;;;7.50;2.33;;;21.30;67.50;;;;;;5020087;28;20120;-74
2023/09/19 13:05:49;;;;;;;7.97;2.35;;;21.30;67.10;;;;;;5027780;28;20100;-76
2023/09/19 13:08:26;;;;;;;8.52;2.33;;;21.40;67.70;;;;;;5027551;28;20175;-75